Time;durP1;ratioP1;P1;durP2;ratioP2;P2;SDS_P1;SDS_P2;PMS_P1;PMS_P2;Temp;Humidity;BMP_temperature;BMP_pressure;BME280_temperature;BME280_humidity;BME280_pressure;Samples;Min_cycle;Max_cycle;Signal;HPM_P1;HPM_P2
2023/09/24 00:00:56;;;;;;;7.50;6.80;;;10.90;99.90;;;;;;5035890;28;20550;-64
2023/09/24 00:03:24;;;;;;;7.63;6.83;;;10.90;99.90;;;;;;5036737;28;20952;-64
2023/09/24 00:05:51;;;;;;;7.67;6.87;;;10.90;99.90;;;;;;5036371;28;20558;-63
2023/09/24 00:08:20;;;;;;;7.50;6.70;;;10.80;99.90;;;;;;5036098;28;20459;-63
2023/09/24 00:10:50;;;;;;;9.63;7.00;;;10.80;99.90;;;;;;5036015;28;20510;-63
2023/09/24 00:13:17;;;;;;;9.20;6.87;;;10.80;99.90;;;;;;5036433;28;20487;-62
2023/09/24 00:15:44;;;;;;;7.80;6.83;;;10.80;99.90;;;;;;5035948;28;20463;-62
2023/09/24 00:18:11;;;;;;;11.83;7.07;;;10.80;99.90;;;;;;5035425;28;20481;-61
2023/09/24 00:20:39;;;;;;;7.90;6.70;;;10.80;99.90;;;;;;5035642;28;21000;-61
2023/09/24 00:23:06;;;;;;;8.00;6.70;;;10.70;99.90;;;;;;5036148;28;20768;-62
2023/09/24 00:25:34;;;;;;;9.67;6.50;;;10.70;99.90;;;;;;5036059;28;20459;-62
2023/09/24 00:28:02;;;;;;;11.70;6.90;;;10.60;99.90;;;;;;5036129;28;20876;-62
2023/09/24 00:30:31;;;;;;;12.63;6.77;;;10.50;99.90;;;;;;5035554;28;20458;-62
2023/09/24 00:32:59;;;;;;;6.63;5.80;;;10.50;99.90;;;;;;5031825;28;20495;-62
2023/09/24 00:35:26;;;;;;;7.40;6.13;;;10.50;99.90;;;;;;5030757;28;20918;-62
2023/09/24 00:37:54;;;;;;;7.37;5.77;;;10.40;99.90;;;;;;5035155;28;20898;-62
2023/09/24 00:40:21;;;;;;;9.30;6.47;;;10.40;99.90;;;;;;5035672;28;20582;-62
2023/09/24 00:42:50;;;;;;;9.23;6.87;;;10.40;99.90;;;;;;5035834;28;20439;-61
2023/09/24 00:45:17;;;;;;;9.73;7.00;;;10.40;99.90;;;;;;5035927;28;20463;-62
2023/09/24 00:47:47;;;;;;;8.37;6.00;;;10.40;99.90;;;;;;5034967;28;20465;-61
2023/09/24 00:50:15;;;;;;;8.10;6.40;;;10.30;99.90;;;;;;5034688;28;20459;-62
2023/09/24 00:52:43;;;;;;;7.20;6.23;;;10.30;99.90;;;;;;5035588;28;20554;-62
2023/09/24 00:55:13;;;;;;;18.83;6.23;;;10.30;99.90;;;;;;5034655;28;20483;-61
2023/09/24 00:57:41;;;;;;;6.37;5.77;;;10.30;99.90;;;;;;5033798;28;20469;-61
2023/09/24 01:00:16;;;;;;;7.37;6.30;;;10.20;99.90;;;;;;5033521;28;20855;-62
2023/09/24 01:02:46;;;;;;;6.77;6.07;;;10.20;99.90;;;;;;5032870;28;20475;-62
2023/09/24 01:05:14;;;;;;;9.13;5.97;;;10.20;99.90;;;;;;5034017;28;20788;-62
2023/09/24 01:07:42;;;;;;;7.10;6.40;;;10.10;99.90;;;;;;5034371;28;20730;-61
2023/09/24 01:10:11;;;;;;;8.63;6.23;;;10.20;99.90;;;;;;5034132;28;20463;-61
2023/09/24 01:12:40;;;;;;;10.60;6.80;;;10.20;99.90;;;;;;5035250;28;20948;-61
2023/09/24 01:15:13;;;;;;;8.47;6.50;;;10.10;99.90;;;;;;5035446;28;20459;-61
2023/09/24 01:17:40;;;;;;;6.77;6.07;;;10.00;99.90;;;;;;5034812;28;20510;-61
2023/09/24 01:20:12;;;;;;;10.37;6.43;;;10.00;99.90;;;;;;5034744;28;21078;-61
2023/09/24 01:22:41;;;;;;;9.40;6.17;;;9.90;99.90;;;;;;5034154;28;20829;-61
2023/09/24 01:25:09;;;;;;;9.40;6.40;;;9.90;99.90;;;;;;5034718;28;20459;-61
2023/09/24 01:27:36;;;;;;;7.50;6.37;;;9.90;99.90;;;;;;5035088;28;20550;-61
2023/09/24 01:30:05;;;;;;;10.60;5.50;;;9.80;99.90;;;;;;5033962;28;20459;-61
2023/09/24 01:32:32;;;;;;;8.57;6.90;;;9.80;99.90;;;;;;5033662;28;20470;-62
2023/09/24 01:35:03;;;;;;;7.43;6.50;;;9.70;99.90;;;;;;5034748;28;20433;-61
2023/09/24 01:37:33;;;;;;;9.70;6.73;;;9.70;99.90;;;;;;5034635;28;20888;-61
2023/09/24 01:40:07;;;;;;;7.03;6.30;;;9.60;99.90;;;;;;5033176;28;20488;-61
2023/09/24 01:42:35;;;;;;;7.23;6.53;;;9.60;99.90;;;;;;5033176;28;20459;-61
2023/09/24 01:45:03;;;;;;;8.70;6.50;;;9.50;99.90;;;;;;5033339;28;20837;-61
2023/09/24 01:47:30;;;;;;;8.40;6.27;;;9.50;99.90;;;;;;5032795;28;20462;-61
2023/09/24 01:49:58;;;;;;;7.47;6.47;;;9.50;99.90;;;;;;5032375;28;20497;-62
2023/09/24 01:52:26;;;;;;;11.07;7.20;;;9.50;99.90;;;;;;5033248;28;20466;-61
2023/09/24 01:54:55;;;;;;;9.27;7.27;;;9.50;99.90;;;;;;5034630;28;20463;-60
2023/09/24 01:57:24;;;;;;;8.27;6.80;;;9.50;99.90;;;;;;5034700;28;20799;-60
2023/09/24 01:59:51;;;;;;;10.60;7.83;;;9.60;99.90;;;;;;5034418;28;20560;-60
2023/09/24 02:02:18;;;;;;;10.00;7.80;;;9.60;99.90;;;;;;5033433;28;20465;-60
2023/09/24 02:04:46;;;;;;;8.40;6.87;;;9.60;99.90;;;;;;5034665;28;20463;-60
2023/09/24 02:07:15;;;;;;;10.80;7.83;;;9.60;99.90;;;;;;5034326;28;20546;-60
2023/09/24 02:09:42;;;;;;;9.43;8.13;;;9.60;99.90;;;;;;5034263;28;20820;-60
2023/09/24 02:12:10;;;;;;;9.23;8.03;;;9.60;99.90;;;;;;5033922;28;20463;-60
2023/09/24 02:14:39;;;;;;;8.03;7.20;;;9.60;99.90;;;;;;5034411;28;20463;-60
2023/09/24 02:17:07;;;;;;;10.90;9.20;;;9.50;99.90;;;;;;5033900;28;20490;-60
2023/09/24 02:19:34;;;;;;;10.03;7.70;;;9.50;99.90;;;;;;5034472;28;20722;-60
2023/09/24 02:22:01;;;;;;;8.53;7.70;;;9.50;99.90;;;;;;5034374;28;20482;-60
2023/09/24 02:24:29;;;;;;;9.03;7.67;;;9.50;99.90;;;;;;5034088;28;20520;-61
2023/09/24 02:26:56;;;;;;;8.47;7.67;;;9.50;99.90;;;;;;5034434;28;20462;-60
2023/09/24 02:29:23;;;;;;;9.60;8.60;;;9.40;99.90;;;;;;5034214;28;20510;-61
2023/09/24 02:31:52;;;;;;;8.90;7.50;;;9.40;99.90;;;;;;5034226;28;20877;-60
2023/09/24 02:34:19;;;;;;;10.97;7.10;;;9.40;99.90;;;;;;5033964;28;20517;-60
2023/09/24 02:36:46;;;;;;;10.17;8.10;;;9.40;99.90;;;;;;5033888;28;20553;-60
2023/09/24 02:39:13;;;;;;;8.83;7.93;;;9.30;99.90;;;;;;5033963;28;20555;-60
2023/09/24 02:41:41;;;;;;;10.07;7.67;;;9.30;99.90;;;;;;5034003;28;20578;-60
2023/09/24 02:44:08;;;;;;;8.07;7.27;;;9.20;99.90;;;;;;5037063;28;20467;-59
2023/09/24 02:46:35;;;;;;;8.77;7.77;;;9.20;99.90;;;;;;5037166;28;20557;-60
2023/09/24 02:49:06;;;;;;;8.93;7.23;;;9.10;99.90;;;;;;5036909;28;20438;-60
2023/09/24 02:51:35;;;;;;;10.50;7.60;;;9.10;99.90;;;;;;5037792;28;20459;-60
2023/09/24 02:54:03;;;;;;;11.13;7.03;;;9.10;99.90;;;;;;5037018;28;20737;-60
2023/09/24 02:56:30;;;;;;;8.43;6.70;;;9.20;99.90;;;;;;5036754;28;20459;-60
2023/09/24 02:58:58;;;;;;;8.63;7.53;;;9.10;99.90;;;;;;5037153;28;20565;-60
2023/09/24 03:01:26;;;;;;;8.00;7.07;;;9.00;99.90;;;;;;5037449;28;20950;-60
2023/09/24 03:03:54;;;;;;;10.30;7.07;;;9.00;99.90;;;;;;5037323;28;20902;-60
2023/09/24 03:06:23;;;;;;;8.17;7.30;;;9.00;99.90;;;;;;5036818;28;20463;-60
2023/09/24 03:08:53;;;;;;;8.60;7.70;;;8.90;99.90;;;;;;5036937;28;20493;-60
2023/09/24 03:11:20;;;;;;;9.73;8.50;;;8.90;99.90;;;;;;5036768;28;20463;-60
2023/09/24 03:13:47;;;;;;;9.40;7.83;;;8.90;99.90;;;;;;5037149;28;20549;-60
2023/09/24 03:16:14;;;;;;;8.17;6.83;;;8.90;99.90;;;;;;5036594;28;20483;-60
2023/09/24 03:18:42;;;;;;;7.30;6.60;;;8.90;99.90;;;;;;5036786;28;20505;-60
2023/09/24 03:21:13;;;;;;;8.73;6.90;;;8.80;99.90;;;;;;5036914;28;20959;-60
2023/09/24 03:23:42;;;;;;;9.13;6.90;;;8.80;99.90;;;;;;5037133;28;20499;-60
2023/09/24 03:26:14;;;;;;;10.60;7.40;;;8.80;99.90;;;;;;5036201;28;20462;-61
2023/09/24 03:28:41;;;;;;;7.87;7.07;;;8.70;99.90;;;;;;5037025;28;20441;-60
2023/09/24 03:31:13;;;;;;;8.63;6.90;;;8.70;99.90;;;;;;5036774;28;20880;-60
2023/09/24 03:33:41;;;;;;;8.40;7.23;;;8.70;99.90;;;;;;5036906;28;20463;-61
2023/09/24 03:36:08;;;;;;;7.90;6.70;;;8.60;99.90;;;;;;5036555;28;20926;-60
2023/09/24 03:38:36;;;;;;;7.43;6.57;;;8.50;99.90;;;;;;5036731;28;20463;-60
2023/09/24 03:41:05;;;;;;;8.63;7.67;;;8.50;99.90;;;;;;5036635;28;20597;-59
2023/09/24 03:43:32;;;;;;;8.80;7.30;;;8.50;99.90;;;;;;5036736;28;20566;-60
2023/09/24 03:45:59;;;;;;;11.73;7.90;;;8.40;99.90;;;;;;5036754;28;20902;-60
2023/09/24 03:48:27;;;;;;;7.00;6.30;;;8.40;99.90;;;;;;5035945;28;20887;-60
2023/09/24 03:50:55;;;;;;;7.43;6.63;;;8.40;99.90;;;;;;5036088;28;20499;-60
2023/09/24 03:53:22;;;;;;;7.80;7.00;;;8.40;99.90;;;;;;5035907;28;20746;-60
2023/09/24 03:55:50;;;;;;;8.73;7.57;;;8.40;99.90;;;;;;5036149;28;20463;-59
2023/09/24 03:58:19;;;;;;;8.17;7.37;;;8.40;99.90;;;;;;5036025;28;20463;-60
2023/09/24 04:00:46;;;;;;;8.67;7.47;;;8.50;99.90;;;;;;5035527;28;20490;-60
2023/09/24 04:03:14;;;;;;;8.23;7.00;;;8.50;99.90;;;;;;5036245;28;20463;-60
2023/09/24 04:05:41;;;;;;;12.43;7.93;;;8.40;99.90;;;;;;5036327;28;20801;-60
2023/09/24 04:08:08;;;;;;;7.57;6.87;;;8.40;99.90;;;;;;5036022;28;20557;-60
2023/09/24 04:10:35;;;;;;;8.57;7.67;;;8.30;99.90;;;;;;5036592;28;20438;-59
2023/09/24 04:13:03;;;;;;;8.83;7.60;;;8.30;99.90;;;;;;5036019;28;20463;-60
2023/09/24 04:15:33;;;;;;;8.67;7.77;;;8.20;99.90;;;;;;5036089;28;20471;-60
2023/09/24 04:18:00;;;;;;;8.40;7.50;;;8.10;99.90;;;;;;5035620;28;20547;-60
2023/09/24 04:20:29;;;;;;;11.50;8.00;;;8.00;99.90;;;;;;5035807;28;20949;-61
2023/09/24 04:22:56;;;;;;;9.47;8.50;;;8.10;99.90;;;;;;5036307;28;20483;-60
2023/09/24 04:25:26;;;;;;;9.23;8.30;;;8.20;99.90;;;;;;5036300;28;20553;-60
2023/09/24 04:27:53;;;;;;;9.10;8.17;;;8.20;99.90;;;;;;5036033;28;20463;-61
2023/09/24 04:30:22;;;;;;;9.70;7.83;;;8.20;99.90;;;;;;5035527;28;20554;-60
2023/09/24 04:32:52;;;;;;;8.43;7.53;;;8.10;99.90;;;;;;5036251;28;20438;-59
2023/09/24 04:35:20;;;;;;;10.63;7.33;;;8.10;99.90;;;;;;5036068;28;20463;-60
2023/09/24 04:37:47;;;;;;;8.40;7.60;;;8.00;99.90;;;;;;5036004;28;20464;-60
2023/09/24 04:40:15;;;;;;;8.97;8.07;;;8.00;99.90;;;;;;5035453;28;20888;-60
2023/09/24 04:42:42;;;;;;;10.83;9.73;;;8.10;99.90;;;;;;5035729;28;20455;-60
2023/09/24 04:45:11;;;;;;;10.07;9.00;;;8.10;99.90;;;;;;5035776;28;20561;-60
2023/09/24 04:47:38;;;;;;;9.67;8.77;;;8.00;99.90;;;;;;5035060;28;20463;-60
2023/09/24 04:50:08;;;;;;;10.63;9.13;;;8.00;99.90;;;;;;5034584;28;20482;-60
2023/09/24 04:52:35;;;;;;;9.53;8.00;;;7.80;99.90;;;;;;5035586;28;20970;-60
2023/09/24 04:55:04;;;;;;;10.73;9.73;;;7.80;99.90;;;;;;5035458;28;20512;-60
2023/09/24 04:57:31;;;;;;;12.33;8.90;;;7.80;99.90;;;;;;5035965;28;20887;-60
2023/09/24 04:59:58;;;;;;;11.27;8.93;;;7.80;99.90;;;;;;5035532;28;20516;-61
2023/09/24 05:02:26;;;;;;;10.50;9.40;;;7.80;99.90;;;;;;5035092;28;20495;-60
2023/09/24 05:04:54;;;;;;;9.90;8.87;;;7.70;99.90;;;;;;5034988;28;20549;-60
2023/09/24 05:07:24;;;;;;;10.90;9.10;;;7.80;99.90;;;;;;5035396;28;20504;-61
2023/09/24 05:09:52;;;;;;;9.97;8.60;;;7.80;99.90;;;;;;5035433;28;20469;-59
2023/09/24 05:12:19;;;;;;;9.50;8.40;;;7.80;99.90;;;;;;5035075;28;20459;-60
2023/09/24 05:14:46;;;;;;;10.40;9.40;;;7.80;99.90;;;;;;5034901;28;20463;-59
2023/09/24 05:17:13;;;;;;;11.43;9.37;;;7.80;99.90;;;;;;5034464;28;20586;-60
2023/09/24 05:19:41;;;;;;;10.10;9.00;;;7.80;99.90;;;;;;5035041;28;20907;-60
2023/09/24 05:22:08;;;;;;;10.90;9.77;;;7.80;99.90;;;;;;5034449;28;20503;-60
2023/09/24 05:24:37;;;;;;;12.80;9.40;;;7.80;99.90;;;;;;5034647;28;20505;-60
2023/09/24 05:27:04;;;;;;;10.70;9.60;;;7.80;99.90;;;;;;5034727;28;20459;-60
2023/09/24 05:29:31;;;;;;;10.63;9.53;;;7.80;99.90;;;;;;5034758;28;20463;-59
2023/09/24 05:32:00;;;;;;;10.47;9.23;;;7.80;99.90;;;;;;5035045;28;20451;-59
2023/09/24 05:34:27;;;;;;;12.33;10.57;;;7.80;99.90;;;;;;5035135;28;20510;-60
2023/09/24 05:36:54;;;;;;;12.13;10.33;;;7.90;99.90;;;;;;5034828;28;20554;-60
2023/09/24 05:39:22;;;;;;;20.40;12.07;;;8.00;99.90;;;;;;5034825;28;20459;-60
2023/09/24 05:41:51;;;;;;;20.73;11.33;;;8.00;99.90;;;;;;5035010;28;20823;-60
2023/09/24 05:44:20;;;;;;;11.90;9.70;;;8.00;99.90;;;;;;5034611;28;20555;-59
2023/09/24 05:46:47;;;;;;;15.90;11.83;;;8.00;99.90;;;;;;5034593;28;20463;-60
2023/09/24 05:49:16;;;;;;;12.90;10.83;;;8.10;99.90;;;;;;5033817;28;20455;-60
2023/09/24 05:51:43;;;;;;;12.60;10.80;;;8.00;99.90;;;;;;5034688;28;20559;-59
2023/09/24 05:54:11;;;;;;;12.37;11.07;;;8.10;99.90;;;;;;5034225;28;20459;-59
2023/09/24 05:56:38;;;;;;;9.90;9.00;;;8.10;99.90;;;;;;5034593;28;20463;-60
2023/09/24 05:59:06;;;;;;;11.93;9.77;;;8.10;99.90;;;;;;5034550;28;20883;-59
2023/09/24 06:01:34;;;;;;;10.80;9.70;;;8.10;99.90;;;;;;5034802;28;20497;-59
2023/09/24 06:04:01;;;;;;;10.70;9.60;;;8.20;99.90;;;;;;5034658;28;20430;-59
2023/09/24 06:06:28;;;;;;;10.90;9.87;;;8.30;99.90;;;;;;5034124;28;20512;-59
2023/09/24 06:08:56;;;;;;;10.20;8.80;;;8.30;99.90;;;;;;5034156;28;20490;-59
2023/09/24 06:11:23;;;;;;;10.40;9.40;;;8.40;99.90;;;;;;5034375;28;20549;-59
2023/09/24 06:13:50;;;;;;;11.83;10.50;;;8.50;99.90;;;;;;5034690;28;20486;-59
2023/09/24 06:16:19;;;;;;;10.67;9.60;;;8.70;99.90;;;;;;5033599;28;20480;-59
2023/09/24 06:18:46;;;;;;;10.47;9.20;;;8.80;99.90;;;;;;5033846;28;20532;-59
2023/09/24 06:21:16;;;;;;;10.40;9.07;;;8.90;99.90;;;;;;5034377;28;20491;-59
2023/09/24 06:23:43;;;;;;;9.60;8.67;;;8.90;99.90;;;;;;5034560;28;20798;-60
2023/09/24 06:26:10;;;;;;;9.70;8.70;;;9.10;99.90;;;;;;5033356;28;20459;-60
2023/09/24 06:28:37;;;;;;;11.13;9.67;;;9.20;99.90;;;;;;5033603;28;20463;-60
2023/09/24 06:31:05;;;;;;;9.63;8.70;;;9.40;99.90;;;;;;5034287;28;20461;-60
2023/09/24 06:33:34;;;;;;;9.10;8.20;;;9.40;99.90;;;;;;5029469;28;20932;-60
2023/09/24 06:36:03;;;;;;;9.40;8.50;;;9.50;99.90;;;;;;5026644;28;20456;-60
2023/09/24 06:38:30;;;;;;;8.63;7.83;;;9.50;99.90;;;;;;5024058;28;20499;-60
2023/09/24 06:40:59;;;;;;;8.73;7.80;;;9.70;99.90;;;;;;5024370;28;20909;-60
2023/09/24 06:43:26;;;;;;;9.20;8.13;;;9.80;99.90;;;;;;5023340;28;20464;-60
2023/09/24 06:45:55;;;;;;;10.27;8.23;;;10.20;99.90;;;;;;5020762;28;20911;-61
2023/09/24 06:48:22;;;;;;;9.70;8.70;;;10.40;99.90;;;;;;5016374;28;20463;-60
2023/09/24 06:50:51;;;;;;;9.80;8.60;;;10.60;99.90;;;;;;5012362;28;20868;-61
2023/09/24 06:53:19;;;;;;;8.60;7.80;;;11.00;99.90;;;;;;5012337;28;20460;-60
2023/09/24 06:55:46;;;;;;;10.17;9.13;;;11.00;99.90;;;;;;5012385;28;20438;-61
2023/09/24 06:58:14;;;;;;;9.63;8.27;;;11.20;99.90;;;;;;5012782;28;20464;-61
2023/09/24 07:00:41;;;;;;;7.97;7.20;;;11.30;99.90;;;;;;5027177;28;20473;-61
2023/09/24 07:03:08;;;;;;;8.87;7.97;;;11.50;99.90;;;;;;5034101;28;20497;-60
2023/09/24 07:05:37;;;;;;;8.50;7.70;;;11.80;99.90;;;;;;5034068;28;20455;-61
2023/09/24 07:08:06;;;;;;;9.70;8.70;;;12.00;99.90;;;;;;5033178;28;20442;-61
2023/09/24 07:10:33;;;;;;;7.67;6.73;;;12.10;99.90;;;;;;5033489;28;20503;-61
2023/09/24 07:13:03;;;;;;;8.10;7.30;;;12.30;99.90;;;;;;5033829;28;20949;-61
2023/09/24 07:15:31;;;;;;;8.77;6.53;;;12.20;99.90;;;;;;5033322;28;20520;-62
2023/09/24 07:17:58;;;;;;;7.80;7.00;;;12.50;99.90;;;;;;5033274;28;20585;-62
2023/09/24 07:20:26;;;;;;;7.83;7.00;;;12.60;99.90;;;;;;5033166;28;20546;-61
2023/09/24 07:22:53;;;;;;;11.57;7.40;;;12.90;99.90;;;;;;5033428;28;20487;-61
2023/09/24 07:25:22;;;;;;;10.73;6.70;;;12.90;99.90;;;;;;5033968;28;20469;-62
2023/09/24 07:27:49;;;;;;;6.90;6.20;;;13.10;99.90;;;;;;5034237;28;20459;-62
2023/09/24 07:30:17;;;;;;;8.90;6.77;;;13.20;99.90;;;;;;5036176;28;20498;-62
2023/09/24 07:32:47;;;;;;;7.90;5.80;;;13.50;99.90;;;;;;5036670;28;20470;-62
2023/09/24 07:35:14;;;;;;;6.67;5.50;;;13.60;62.60;;;;;;5036946;28;20826;-63
2023/09/24 07:37:41;;;;;;;7.63;5.70;;;13.90;1.00;;;;;;5037028;28;20520;-63
2023/09/24 07:40:10;;;;;;;6.83;5.47;;;13.90;1.00;;;;;;5036261;28;20469;-62
2023/09/24 07:42:39;;;;;;;6.30;5.67;;;14.10;1.00;;;;;;5036780;28;20501;-62
2023/09/24 07:45:07;;;;;;;6.20;5.00;;;14.10;1.00;;;;;;5036666;28;20532;-63
2023/09/24 07:47:36;;;;;;;6.33;5.27;;;14.30;42.60;;;;;;5036684;28;20475;-63
2023/09/24 07:50:04;;;;;;;9.30;5.37;;;14.40;1.00;;;;;;5034221;28;20901;-65
2023/09/24 07:52:33;;;;;;;8.17;5.27;;;14.60;83.30;;;;;;5034523;28;20459;-62
2023/09/24 07:55:01;;;;;;;6.70;5.97;;;14.60;99.90;;;;;;5030719;28;20472;-62
2023/09/24 07:57:29;;;;;;;8.00;5.03;;;14.80;99.90;;;;;;5034123;28;20459;-62
2023/09/24 07:59:57;;;;;;;7.73;4.17;;;14.90;99.90;;;;;;5034952;28;20463;-63
2023/09/24 08:02:25;;;;;;;5.80;4.43;;;15.00;99.90;;;;;;5034492;28;20687;-62
2023/09/24 08:04:52;;;;;;;6.43;4.03;;;15.30;99.90;;;;;;5034513;28;20492;-62
2023/09/24 08:07:20;;;;;;;10.70;3.90;;;15.50;92.40;;;;;;5031583;28;20456;-62
2023/09/24 08:09:48;;;;;;;5.13;3.67;;;15.50;32.60;;;;;;5023089;28;21388;-62
2023/09/24 08:12:16;;;;;;;4.33;3.83;;;15.60;64.90;;;;;;5027829;28;20476;-61
2023/09/24 08:14:43;;;;;;;5.67;3.47;;;15.50;5.30;;;;;;5024824;28;20451;-62
2023/09/24 08:17:12;;;;;;;5.10;3.60;;;15.80;33.00;;;;;;5017466;28;20485;-62
2023/09/24 08:19:39;;;;;;;5.67;3.40;;;15.90;3.80;;;;;;5014406;28;20915;-61
2023/09/24 08:22:18;;;;;;;8.40;4.40;;;16.10;1.00;;;;;;5015006;28;20603;-61
2023/09/24 08:24:45;;;;;;;4.57;3.50;;;16.30;1.20;;;;;;5014557;28;20830;-61
2023/09/24 08:27:13;;;;;;;4.77;3.10;;;16.50;1.00;;;;;;5022046;28;20465;-61
2023/09/24 08:29:40;;;;;;;4.37;3.00;;;16.70;1.00;;;;;;5027716;28;20461;-61
2023/09/24 08:32:07;;;;;;;5.93;3.20;;;17.00;1.00;;;;;;5023932;28;20458;-61
2023/09/24 08:34:36;;;;;;;8.13;2.70;;;17.20;1.00;;;;;;5024164;28;20455;-61
2023/09/24 08:37:04;;;;;;;6.60;2.97;;;17.40;1.00;;;;;;5025647;28;20557;-60
2023/09/24 08:39:31;;;;;;;4.53;2.40;;;17.60;1.00;;;;;;5024575;28;20501;-61
2023/09/24 08:42:01;;;;;;;6.37;3.13;;;17.60;1.00;;;;;;5025311;28;20587;-60
2023/09/24 08:44:30;;;;;;;4.30;3.00;;;17.70;1.00;;;;;;5024795;28;20484;-61
2023/09/24 08:46:59;;;;;;;5.40;2.57;;;17.80;1.00;;;;;;5019623;28;20459;-61
2023/09/24 08:49:27;;;;;;;5.53;3.20;;;17.90;99.90;;;;;;5019130;28;20440;-60
2023/09/24 08:51:56;;;;;;;3.93;2.90;;;18.10;99.90;;;;;;5026568;28;20474;-61
2023/09/24 08:54:24;;;;;;;5.67;3.20;;;18.20;99.90;;;;;;5027151;28;20488;-60
2023/09/24 08:56:51;;;;;;;9.23;2.77;;;18.40;99.90;;;;;;5023471;28;20448;-60
2023/09/24 08:59:19;;;;;;;5.00;2.97;;;18.60;99.90;;;;;;5020614;28;20452;-59
2023/09/24 09:01:54;;;;;;;4.20;2.20;;;18.70;99.90;;;;;;5033798;28;20530;-60
2023/09/24 09:04:21;;;;;;;3.87;2.57;;;18.90;99.90;;;;;;5033142;28;20463;-60
2023/09/24 09:06:49;;;;;;;4.60;2.37;;;19.30;99.90;;;;;;5022813;28;20464;-60
2023/09/24 09:09:27;;;;;;;3.33;2.57;;;19.50;99.90;;;;;;5033072;28;20438;-59
2023/09/24 09:11:54;;;;;;;4.67;2.70;;;19.90;99.90;;;;;;5034120;28;20459;-60
2023/09/24 09:14:34;;;;;;;4.27;2.40;;;20.10;99.90;;;;;;5034837;28;20902;-60
2023/09/24 09:17:03;;;;;;;4.57;2.70;;;20.10;99.90;;;;;;5034151;28;20537;-60
2023/09/24 09:19:48;;;;;;;3.80;2.47;;;20.30;99.90;;;;;;5035372;28;20812;-60
2023/09/24 09:22:19;;;;;;;4.63;2.73;;;20.30;99.90;;;;;;5035163;28;20561;-60
2023/09/24 09:24:50;;;;;;;5.63;2.50;;;20.40;11.90;;;;;;5033152;28;20466;-59
2023/09/24 09:27:17;;;;;;;5.97;3.00;;;20.50;99.90;;;;;;5033301;28;20475;-60
2023/09/24 09:29:45;;;;;;;4.33;2.57;;;20.80;99.90;;;;;;5033373;28;20491;-60
2023/09/24 09:32:12;;;;;;;3.23;2.23;;;20.80;99.90;;;;;;5034129;28;20936;-60
2023/09/24 09:34:53;;;;;;;3.83;2.20;;;20.60;99.90;;;;;;5033964;28;20500;-60
2023/09/24 09:37:21;;;;;;;3.70;2.70;;;20.60;99.90;;;;;;5034135;28;20561;-59
2023/09/24 09:39:50;;;;;;;5.13;2.90;;;20.60;99.90;;;;;;5035072;28;20459;-58
2023/09/24 09:42:24;;;;;;;4.20;2.40;;;20.60;99.90;;;;;;5035508;28;20526;-62
2023/09/24 09:44:53;;;;;;;4.50;3.00;;;20.70;99.90;;;;;;5034702;28;20815;-63
2023/09/24 09:47:21;;;;;;;4.67;2.83;;;20.80;99.90;;;;;;5034985;28;20456;-63
2023/09/24 09:49:57;;;;;;;4.90;2.57;;;20.70;99.90;;;;;;5035289;28;20772;-63
2023/09/24 09:52:31;;;;;;;5.00;2.57;;;20.90;99.90;;;;;;5034180;28;20928;-62
2023/09/24 09:55:03;;;;;;;3.70;2.67;;;21.10;99.90;;;;;;5034467;28;20463;-63
2023/09/24 09:57:32;;;;;;;6.47;2.63;;;21.30;99.90;;;;;;5034818;28;20458;-63
2023/09/24 10:00:00;;;;;;;3.40;2.60;;;21.10;99.90;;;;;;5034603;28;20459;-62
2023/09/24 10:02:29;;;;;;;4.63;3.00;;;21.20;99.90;;;;;;5034469;28;20495;-63
2023/09/24 10:04:58;;;;;;;4.83;2.60;;;21.40;13.00;;;;;;5034581;28;20510;-62
2023/09/24 10:07:27;;;;;;;3.20;2.10;;;21.40;99.90;;;;;;5037083;28;20868;-62
2023/09/24 10:09:54;;;;;;;3.53;2.20;;;21.50;99.90;;;;;;5023238;28;20741;-62
2023/09/24 10:12:37;;;;;;;3.70;2.43;;;21.60;99.90;;;;;;5014886;28;20456;-63
2023/09/24 10:15:26;;;;;;;4.90;2.30;;;21.70;99.90;;;;;;5014002;28;20452;-61
2023/09/24 10:18:25;;;;;;;3.50;2.40;;;22.00;99.90;;;;;;5002793;28;20504;-62
2023/09/24 10:21:06;;;;;;;3.80;2.90;;;21.90;99.90;;;;;;5014402;28;20559;-62
2023/09/24 10:23:35;;;;;;;4.70;2.70;;;21.90;99.90;;;;;;5014564;28;20568;-62
2023/09/24 10:26:05;;;;;;;2.80;2.37;;;21.90;99.90;;;;;;5014322;28;20942;-62
2023/09/24 10:28:52;;;;;;;3.10;2.70;;;21.70;99.90;;;;;;5021089;28;20499;-62
2023/09/24 10:31:21;;;;;;;4.30;2.40;;;21.70;99.90;;;;;;5034225;28;20561;-62
2023/09/24 10:33:59;;;;;;;4.47;2.27;;;22.10;99.90;;;;;;5033195;28;20793;-61
2023/09/24 10:36:30;;;;;;;3.93;2.80;;;22.20;99.90;;;;;;5033741;28;20949;-62
2023/09/24 10:39:04;;;;;;;4.77;2.43;;;22.20;99.90;;;;;;5033480;28;20474;-61
2023/09/24 10:41:33;;;;;;;3.40;2.60;;;22.40;99.90;;;;;;5033497;28;20858;-62
2023/09/24 10:44:27;;;;;;;3.30;2.63;;;22.40;99.90;;;;;;5033048;28;20477;-62
2023/09/24 10:46:54;;;;;;;4.13;2.97;;;22.60;99.90;;;;;;5014990;28;20471;-62
2023/09/24 10:49:24;;;;;;;5.10;2.27;;;22.70;99.90;;;;;;5032751;28;20459;-62
2023/09/24 10:51:51;;;;;;;3.40;2.50;;;22.90;99.90;;;;;;5031425;28;20470;-62
2023/09/24 10:54:19;;;;;;;3.33;2.60;;;22.90;99.90;;;;;;5032059;28;20482;-60
2023/09/24 10:56:48;;;;;;;4.37;2.70;;;22.90;99.90;;;;;;5032362;28;20459;-61
2023/09/24 10:59:15;;;;;;;4.33;2.80;;;22.70;99.90;;;;;;5030754;28;20663;-61
2023/09/24 11:01:45;;;;;;;2.20;1.83;;;22.80;99.90;;;;;;5031640;28;20451;-62
2023/09/24 11:04:24;;;;;;;3.87;2.37;;;22.60;99.90;;;;;;5033747;28;20583;-62
2023/09/24 11:06:52;;;;;;;3.40;2.53;;;22.60;99.90;;;;;;5036123;28;20779;-61
2023/09/24 11:09:21;;;;;;;4.07;2.77;;;22.80;99.90;;;;;;5035636;28;20522;-61
2023/09/24 11:11:49;;;;;;;3.13;2.50;;;22.80;99.90;;;;;;5035516;28;20594;-61
2023/09/24 11:14:22;;;;;;;3.27;2.50;;;22.90;99.90;;;;;;5035365;28;20563;-61
2023/09/24 11:16:52;;;;;;;4.53;2.40;;;22.60;99.90;;;;;;5035342;28;20939;-61
2023/09/24 11:19:44;;;;;;;3.57;2.50;;;22.60;99.90;;;;;;5036372;27;20572;-62
2023/09/24 11:22:22;;;;;;;4.00;2.53;;;22.80;99.90;;;;;;5057086;27;20467;-61
2023/09/24 11:25:05;;;;;;;2.93;2.10;;;22.70;99.90;;;;;;5035072;28;20879;-61
2023/09/24 11:27:33;;;;;;;5.63;2.30;;;22.90;99.90;;;;;;5033819;28;20557;-60
2023/09/24 11:30:02;;;;;;;3.27;2.50;;;22.90;99.90;;;;;;5033955;28;20466;-61
2023/09/24 11:32:31;;;;;;;5.80;2.87;;;22.90;99.90;;;;;;5033032;28;20455;-61
2023/09/24 11:35:08;;;;;;;8.30;3.10;;;22.90;99.90;;;;;;5034473;28;20462;-61
2023/09/24 11:37:54;;;;;;;2.90;2.30;;;22.90;99.90;;;;;;5035170;28;20877;-60
2023/09/24 11:40:27;;;;;;;3.33;1.80;;;22.80;99.90;;;;;;5034507;28;20497;-61
2023/09/24 11:42:55;;;;;;;4.10;2.60;;;22.80;99.90;;;;;;5033660;28;20494;-61
2023/09/24 11:45:46;;;;;;;3.57;2.17;;;22.90;99.90;;;;;;5033792;28;20600;-61
2023/09/24 11:48:16;;;;;;;2.83;2.53;;;23.00;99.90;;;;;;5033817;28;20496;-61
2023/09/24 11:50:45;;;;;;;2.93;1.97;;;23.00;99.90;;;;;;5034938;28;20454;-61
2023/09/24 11:53:13;;;;;;;3.20;2.30;;;23.10;99.90;;;;;;5036178;28;20811;-62
2023/09/24 11:55:42;;;;;;;5.23;2.90;;;23.10;99.90;;;;;;5036502;28;20454;-61
2023/09/24 11:58:11;;;;;;;3.30;2.50;;;23.00;99.90;;;;;;5036492;28;20942;-60
2023/09/24 12:00:39;;;;;;;3.23;2.30;;;23.20;99.90;;;;;;5036118;28;20470;-60
2023/09/24 12:03:07;;;;;;;4.20;2.30;;;23.10;99.90;;;;;;5036342;28;21053;-60
2023/09/24 12:05:37;;;;;;;3.83;2.40;;;23.30;99.90;;;;;;5036207;28;20459;-61
2023/09/24 12:08:06;;;;;;;3.50;2.20;;;23.60;99.90;;;;;;5035281;28;20463;-60
2023/09/24 12:10:36;;;;;;;3.53;2.10;;;23.80;99.90;;;;;;5036389;28;20516;-60
2023/09/24 12:13:04;;;;;;;3.20;2.00;;;23.60;99.90;;;;;;5036041;28;20482;-60
2023/09/24 12:15:33;;;;;;;3.67;2.87;;;23.70;99.90;;;;;;5035429;28;20844;-59
2023/09/24 12:18:03;;;;;;;4.53;2.20;;;23.80;99.90;;;;;;5035601;28;20494;-60
2023/09/24 12:20:31;;;;;;;2.33;1.73;;;23.80;99.90;;;;;;5035750;28;20459;-61
2023/09/24 12:23:01;;;;;;;3.30;2.10;;;24.00;99.90;;;;;;5036079;28;20499;-60
2023/09/24 12:25:30;;;;;;;3.13;2.57;;;24.10;99.90;;;;;;5036338;28;20459;-59
2023/09/24 12:27:57;;;;;;;4.50;2.13;;;24.30;99.90;;;;;;5036100;28;20821;-60
2023/09/24 12:30:25;;;;;;;3.63;2.10;;;24.30;99.90;;;;;;5035581;28;20512;-60
2023/09/24 12:32:52;;;;;;;2.30;1.87;;;24.30;99.90;;;;;;5035684;28;20459;-59
2023/09/24 12:35:20;;;;;;;2.63;2.37;;;24.30;99.90;;;;;;5036325;28;20482;-59
2023/09/24 12:37:47;;;;;;;3.27;2.50;;;24.10;99.90;;;;;;5035838;28;20519;-60
2023/09/24 12:40:17;;;;;;;3.03;2.03;;;24.00;99.90;;;;;;5036005;28;20876;-60
2023/09/24 12:42:44;;;;;;;4.07;2.27;;;24.10;99.90;;;;;;5035240;28;20463;-60
2023/09/24 12:45:13;;;;;;;2.80;2.20;;;24.30;99.90;;;;;;5035585;28;20815;-60
2023/09/24 12:47:48;;;;;;;3.07;2.40;;;24.20;99.90;;;;;;5034517;28;20493;-61
2023/09/24 12:50:15;;;;;;;3.13;2.00;;;24.10;99.90;;;;;;5031598;28;20792;-60
2023/09/24 12:52:45;;;;;;;3.70;2.50;;;23.90;99.90;;;;;;5034649;28;20769;-61
2023/09/24 12:55:15;;;;;;;4.10;2.43;;;23.90;99.90;;;;;;5016481;28;20460;-60
2023/09/24 12:57:45;;;;;;;3.47;2.20;;;24.00;99.90;;;;;;5035725;28;20796;-60
2023/09/24 13:00:14;;;;;;;3.70;2.07;;;24.20;99.90;;;;;;5033683;28;20638;-61